sensor_id;sensor_type;location;lat;lon;timestamp;temperature;humidity
17423;DHT22;8829;47.932;7.810;2023-07-30T00:01:09;20.20;99.90
17423;DHT22;8829;47.932;7.810;2023-07-30T00:03:36;20.10;99.90
17423;DHT22;8829;47.932;7.810;2023-07-30T00:06:02;20.10;99.90
17423;DHT22;8829;47.932;7.810;2023-07-30T00:08:29;20.10;99.90
17423;DHT22;8829;47.932;7.810;2023-07-30T00:10:58;20.10;99.90
17423;DHT22;8829;47.932;7.810;2023-07-30T00:13:24;20.10;99.90
17423;DHT22;8829;47.932;7.810;2023-07-30T00:15:51;20.20;99.90
17423;DHT22;8829;47.932;7.810;2023-07-30T00:18:18;20.10;99.90
17423;DHT22;8829;47.932;7.810;2023-07-30T00:20:44;20.10;99.90
17423;DHT22;8829;47.932;7.810;2023-07-30T00:23:11;20.10;99.90
17423;DHT22;8829;47.932;7.810;2023-07-30T00:25:38;20.10;99.90
17423;DHT22;8829;47.932;7.810;2023-07-30T00:28:06;20.10;99.90
17423;DHT22;8829;47.932;7.810;2023-07-30T00:30:33;20.10;99.90
17423;DHT22;8829;47.932;7.810;2023-07-30T00:32:59;20.10;99.90
17423;DHT22;8829;47.932;7.810;2023-07-30T00:35:26;20.10;99.90
17423;DHT22;8829;47.932;7.810;2023-07-30T00:37:53;20.10;99.90
17423;DHT22;8829;47.932;7.810;2023-07-30T00:40:19;20.10;99.90
17423;DHT22;8829;47.932;7.810;2023-07-30T00:42:46;20.20;99.90
17423;DHT22;8829;47.932;7.810;2023-07-30T00:45:14;20.20;99.90
17423;DHT22;8829;47.932;7.810;2023-07-30T00:47:41;20.10;99.90
17423;DHT22;8829;47.932;7.810;2023-07-30T00:50:09;20.10;99.90
17423;DHT22;8829;47.932;7.810;2023-07-30T00:52:37;20.10;99.90
17423;DHT22;8829;47.932;7.810;2023-07-30T00:55:04;20.10;99.90
17423;DHT22;8829;47.932;7.810;2023-07-30T00:57:32;20.10;99.90
17423;DHT22;8829;47.932;7.810;2023-07-30T00:59:59;20.10;99.90
17423;DHT22;8829;47.932;7.810;2023-07-30T01:02:31;20.10;99.90
17423;DHT22;8829;47.932;7.810;2023-07-30T01:04:58;20.00;99.90
17423;DHT22;8829;47.932;7.810;2023-07-30T01:07:25;19.90;99.90
17423;DHT22;8829;47.932;7.810;2023-07-30T01:09:52;19.90;99.90
17423;DHT22;8829;47.932;7.810;2023-07-30T01:12:19;19.90;99.90
17423;DHT22;8829;47.932;7.810;2023-07-30T01:14:47;19.90;99.90
17423;DHT22;8829;47.932;7.810;2023-07-30T01:17:15;19.90;99.90
17423;DHT22;8829;47.932;7.810;2023-07-30T01:19:43;19.90;99.90
17423;DHT22;8829;47.932;7.810;2023-07-30T01:22:11;19.90;99.90
17423;DHT22;8829;47.932;7.810;2023-07-30T01:24:38;19.90;99.90
17423;DHT22;8829;47.932;7.810;2023-07-30T01:27:07;19.80;99.90
17423;DHT22;8829;47.932;7.810;2023-07-30T01:29:40;19.90;99.90
17423;DHT22;8829;47.932;7.810;2023-07-30T01:32:11;20.00;99.90
17423;DHT22;8829;47.932;7.810;2023-07-30T01:34:40;20.00;99.90
17423;DHT22;8829;47.932;7.810;2023-07-30T01:37:09;20.00;99.90
17423;DHT22;8829;47.932;7.810;2023-07-30T01:39:39;20.00;99.90
17423;DHT22;8829;47.932;7.810;2023-07-30T01:42:06;20.00;99.90
17423;DHT22;8829;47.932;7.810;2023-07-30T01:44:33;19.90;99.90
17423;DHT22;8829;47.932;7.810;2023-07-30T01:47:00;19.90;99.90
17423;DHT22;8829;47.932;7.810;2023-07-30T01:49:27;19.90;99.90
17423;DHT22;8829;47.932;7.810;2023-07-30T01:51:53;19.90;99.90
17423;DHT22;8829;47.932;7.810;2023-07-30T01:54:20;19.90;99.90
17423;DHT22;8829;47.932;7.810;2023-07-30T01:56:48;19.80;99.90
17423;DHT22;8829;47.932;7.810;2023-07-30T01:59:15;19.80;99.90
17423;DHT22;8829;47.932;7.810;2023-07-30T02:01:42;19.70;99.90
17423;DHT22;8829;47.932;7.810;2023-07-30T02:04:09;19.70;99.90
17423;DHT22;8829;47.932;7.810;2023-07-30T02:06:36;19.70;99.90
17423;DHT22;8829;47.932;7.810;2023-07-30T02:09:02;19.70;99.90
17423;DHT22;8829;47.932;7.810;2023-07-30T02:11:29;19.70;99.90
17423;DHT22;8829;47.932;7.810;2023-07-30T02:13:57;19.70;99.90
17423;DHT22;8829;47.932;7.810;2023-07-30T02:16:24;19.70;99.90
17423;DHT22;8829;47.932;7.810;2023-07-30T02:18:50;19.70;99.90
17423;DHT22;8829;47.932;7.810;2023-07-30T02:21:17;19.70;99.90
17423;DHT22;8829;47.932;7.810;2023-07-30T02:23:44;19.70;99.90
17423;DHT22;8829;47.932;7.810;2023-07-30T02:26:10;19.70;99.90
17423;DHT22;8829;47.932;7.810;2023-07-30T02:28:37;19.60;99.90
17423;DHT22;8829;47.932;7.810;2023-07-30T02:31:05;19.60;99.90
17423;DHT22;8829;47.932;7.810;2023-07-30T02:33:32;19.60;99.90
17423;DHT22;8829;47.932;7.810;2023-07-30T02:35:58;19.50;99.90
17423;DHT22;8829;47.932;7.810;2023-07-30T02:38:25;19.50;99.90
17423;DHT22;8829;47.932;7.810;2023-07-30T02:40:52;19.50;99.90
17423;DHT22;8829;47.932;7.810;2023-07-30T02:43:18;19.50;99.90
17423;DHT22;8829;47.932;7.810;2023-07-30T02:45:47;19.40;99.90
17423;DHT22;8829;47.932;7.810;2023-07-30T02:48:15;19.50;99.90
17423;DHT22;8829;47.932;7.810;2023-07-30T02:50:42;19.50;99.90
17423;DHT22;8829;47.932;7.810;2023-07-30T02:53:08;19.50;99.90
17423;DHT22;8829;47.932;7.810;2023-07-30T02:55:35;19.50;99.90
17423;DHT22;8829;47.932;7.810;2023-07-30T02:58:02;19.50;99.90
17423;DHT22;8829;47.932;7.810;2023-07-30T03:00:28;19.40;99.90
17423;DHT22;8829;47.932;7.810;2023-07-30T03:02:56;19.50;99.90
17423;DHT22;8829;47.932;7.810;2023-07-30T03:05:24;19.50;99.90
17423;DHT22;8829;47.932;7.810;2023-07-30T03:07:52;19.50;99.90
17423;DHT22;8829;47.932;7.810;2023-07-30T03:10:19;19.50;99.90
17423;DHT22;8829;47.932;7.810;2023-07-30T03:12:45;19.50;99.90
17423;DHT22;8829;47.932;7.810;2023-07-30T03:15:12;19.40;99.90
17423;DHT22;8829;47.932;7.810;2023-07-30T03:17:39;19.40;99.90
17423;DHT22;8829;47.932;7.810;2023-07-30T03:20:07;19.40;99.90
17423;DHT22;8829;47.932;7.810;2023-07-30T03:22:35;19.40;99.90
17423;DHT22;8829;47.932;7.810;2023-07-30T03:25:02;19.40;99.90
17423;DHT22;8829;47.932;7.810;2023-07-30T03:27:29;19.40;99.90
17423;DHT22;8829;47.932;7.810;2023-07-30T03:29:56;19.30;99.90
17423;DHT22;8829;47.932;7.810;2023-07-30T03:32:22;19.30;99.90
17423;DHT22;8829;47.932;7.810;2023-07-30T03:34:49;19.30;99.90
17423;DHT22;8829;47.932;7.810;2023-07-30T03:37:16;19.30;99.90
17423;DHT22;8829;47.932;7.810;2023-07-30T03:39:44;19.20;99.90
17423;DHT22;8829;47.932;7.810;2023-07-30T03:42:10;19.30;99.90
17423;DHT22;8829;47.932;7.810;2023-07-30T03:44:37;19.20;99.90
17423;DHT22;8829;47.932;7.810;2023-07-30T03:47:04;19.30;99.90
17423;DHT22;8829;47.932;7.810;2023-07-30T03:49:30;19.30;99.90
17423;DHT22;8829;47.932;7.810;2023-07-30T03:51:57;19.30;99.90
17423;DHT22;8829;47.932;7.810;2023-07-30T03:54:24;19.30;99.90
17423;DHT22;8829;47.932;7.810;2023-07-30T03:56:52;19.20;99.90
17423;DHT22;8829;47.932;7.810;2023-07-30T03:59:18;19.20;99.90
17423;DHT22;8829;47.932;7.810;2023-07-30T04:01:45;19.20;99.90
17423;DHT22;8829;47.932;7.810;2023-07-30T04:04:12;19.20;99.90
17423;DHT22;8829;47.932;7.810;2023-07-30T04:06:39;19.20;99.90
17423;DHT22;8829;47.932;7.810;2023-07-30T04:09:05;19.20;99.90
17423;DHT22;8829;47.932;7.810;2023-07-30T04:11:33;19.20;99.90
17423;DHT22;8829;47.932;7.810;2023-07-30T04:14:01;19.20;99.90
17423;DHT22;8829;47.932;7.810;2023-07-30T04:16:30;19.20;99.90
17423;DHT22;8829;47.932;7.810;2023-07-30T04:18:57;19.20;99.90
17423;DHT22;8829;47.932;7.810;2023-07-30T04:21:23;19.30;99.90
17423;DHT22;8829;47.932;7.810;2023-07-30T04:23:50;19.20;99.90
17423;DHT22;8829;47.932;7.810;2023-07-30T04:26:17;19.20;99.90
17423;DHT22;8829;47.932;7.810;2023-07-30T04:28:43;19.30;99.90
17423;DHT22;8829;47.932;7.810;2023-07-30T04:31:12;19.30;99.90
17423;DHT22;8829;47.932;7.810;2023-07-30T04:33:38;19.40;99.90
17423;DHT22;8829;47.932;7.810;2023-07-30T04:36:05;19.40;99.90
17423;DHT22;8829;47.932;7.810;2023-07-30T04:38:33;19.40;99.90
17423;DHT22;8829;47.932;7.810;2023-07-30T04:41:01;19.50;99.90
17423;DHT22;8829;47.932;7.810;2023-07-30T04:43:28;19.50;99.90
17423;DHT22;8829;47.932;7.810;2023-07-30T04:45:55;19.50;99.90
17423;DHT22;8829;47.932;7.810;2023-07-30T04:48:23;19.60;99.90
17423;DHT22;8829;47.932;7.810;2023-07-30T04:50:50;19.60;99.90
17423;DHT22;8829;47.932;7.810;2023-07-30T04:53:16;19.60;99.90
17423;DHT22;8829;47.932;7.810;2023-07-30T04:55:44;19.60;99.90
17423;DHT22;8829;47.932;7.810;2023-07-30T04:58:10;19.90;99.90
17423;DHT22;8829;47.932;7.810;2023-07-30T05:00:37;19.80;99.90
17423;DHT22;8829;47.932;7.810;2023-07-30T05:03:03;19.90;99.90
17423;DHT22;8829;47.932;7.810;2023-07-30T05:05:31;20.00;99.90
17423;DHT22;8829;47.932;7.810;2023-07-30T05:07:58;20.00;99.90
17423;DHT22;8829;47.932;7.810;2023-07-30T05:10:25;20.00;99.90
17423;DHT22;8829;47.932;7.810;2023-07-30T05:12:52;20.10;99.90
17423;DHT22;8829;47.932;7.810;2023-07-30T05:15:18;20.10;99.90
17423;DHT22;8829;47.932;7.810;2023-07-30T05:17:45;20.10;99.90
17423;DHT22;8829;47.932;7.810;2023-07-30T05:20:12;20.10;99.90
17423;DHT22;8829;47.932;7.810;2023-07-30T05:22:40;20.20;99.90
17423;DHT22;8829;47.932;7.810;2023-07-30T05:25:07;20.10;99.90
17423;DHT22;8829;47.932;7.810;2023-07-30T05:27:35;20.10;99.90
17423;DHT22;8829;47.932;7.810;2023-07-30T05:30:02;20.10;99.90
17423;DHT22;8829;47.932;7.810;2023-07-30T05:32:29;20.10;99.90
17423;DHT22;8829;47.932;7.810;2023-07-30T05:34:55;20.10;99.90
17423;DHT22;8829;47.932;7.810;2023-07-30T05:37:22;20.20;99.90
17423;DHT22;8829;47.932;7.810;2023-07-30T05:39:50;20.30;99.90
17423;DHT22;8829;47.932;7.810;2023-07-30T05:42:17;20.50;99.90
17423;DHT22;8829;47.932;7.810;2023-07-30T05:44:44;20.70;99.90
17423;DHT22;8829;47.932;7.810;2023-07-30T05:47:10;20.90;99.90
17423;DHT22;8829;47.932;7.810;2023-07-30T05:49:37;20.90;99.90
17423;DHT22;8829;47.932;7.810;2023-07-30T05:52:05;21.20;99.90
17423;DHT22;8829;47.932;7.810;2023-07-30T05:54:31;21.40;99.90
17423;DHT22;8829;47.932;7.810;2023-07-30T05:56:59;21.50;99.90
17423;DHT22;8829;47.932;7.810;2023-07-30T05:59:26;21.50;99.90
17423;DHT22;8829;47.932;7.810;2023-07-30T06:01:55;21.60;99.90
17423;DHT22;8829;47.932;7.810;2023-07-30T06:04:22;22.10;99.90
17423;DHT22;8829;47.932;7.810;2023-07-30T06:06:48;22.70;99.90
17423;DHT22;8829;47.932;7.810;2023-07-30T06:09:15;23.30;99.90
17423;DHT22;8829;47.932;7.810;2023-07-30T06:11:42;23.60;99.90
17423;DHT22;8829;47.932;7.810;2023-07-30T06:14:10;23.40;99.90
17423;DHT22;8829;47.932;7.810;2023-07-30T06:16:36;23.00;99.90
17423;DHT22;8829;47.932;7.810;2023-07-30T06:19:03;22.70;99.90
17423;DHT22;8829;47.932;7.810;2023-07-30T06:21:30;22.40;99.90
17423;DHT22;8829;47.932;7.810;2023-07-30T06:23:56;22.10;99.90
17423;DHT22;8829;47.932;7.810;2023-07-30T06:26:23;22.00;99.90
17423;DHT22;8829;47.932;7.810;2023-07-30T06:28:50;21.70;99.90
17423;DHT22;8829;47.932;7.810;2023-07-30T06:31:18;21.50;99.90
17423;DHT22;8829;47.932;7.810;2023-07-30T06:33:45;21.40;99.90
17423;DHT22;8829;47.932;7.810;2023-07-30T06:36:11;21.40;99.90
17423;DHT22;8829;47.932;7.810;2023-07-30T06:38:38;21.40;99.90
17423;DHT22;8829;47.932;7.810;2023-07-30T06:41:05;21.40;99.90
17423;DHT22;8829;47.932;7.810;2023-07-30T06:43:32;21.40;99.90
17423;DHT22;8829;47.932;7.810;2023-07-30T06:45:58;21.20;99.90
17423;DHT22;8829;47.932;7.810;2023-07-30T06:48:26;21.20;99.90
17423;DHT22;8829;47.932;7.810;2023-07-30T06:50:53;21.10;99.90
17423;DHT22;8829;47.932;7.810;2023-07-30T06:53:20;21.10;99.90
17423;DHT22;8829;47.932;7.810;2023-07-30T06:55:46;21.20;99.90
17423;DHT22;8829;47.932;7.810;2023-07-30T06:58:13;21.20;99.90
17423;DHT22;8829;47.932;7.810;2023-07-30T07:00:40;21.30;99.90
17423;DHT22;8829;47.932;7.810;2023-07-30T07:03:07;21.30;99.90
17423;DHT22;8829;47.932;7.810;2023-07-30T07:05:35;21.30;99.90
17423;DHT22;8829;47.932;7.810;2023-07-30T07:08:02;21.50;99.90
17423;DHT22;8829;47.932;7.810;2023-07-30T07:10:29;21.50;99.90
17423;DHT22;8829;47.932;7.810;2023-07-30T07:12:55;21.60;99.90
17423;DHT22;8829;47.932;7.810;2023-07-30T07:15:22;21.80;99.90
17423;DHT22;8829;47.932;7.810;2023-07-30T07:17:49;22.00;99.90
17423;DHT22;8829;47.932;7.810;2023-07-30T07:20:16;22.00;99.90
17423;DHT22;8829;47.932;7.810;2023-07-30T07:22:45;22.30;99.90
17423;DHT22;8829;47.932;7.810;2023-07-30T07:25:11;22.50;99.90
17423;DHT22;8829;47.932;7.810;2023-07-30T07:27:38;22.70;99.90
17423;DHT22;8829;47.932;7.810;2023-07-30T07:30:06;22.90;99.90
17423;DHT22;8829;47.932;7.810;2023-07-30T07:32:33;23.10;99.90
17423;DHT22;8829;47.932;7.810;2023-07-30T07:35:05;23.10;99.90
17423;DHT22;8829;47.932;7.810;2023-07-30T07:37:32;22.80;99.90
17423;DHT22;8829;47.932;7.810;2023-07-30T07:40:00;22.90;99.90
17423;DHT22;8829;47.932;7.810;2023-07-30T07:42:29;22.80;99.90
17423;DHT22;8829;47.932;7.810;2023-07-30T07:44:55;23.00;99.90
17423;DHT22;8829;47.932;7.810;2023-07-30T07:47:22;23.80;99.90
17423;DHT22;8829;47.932;7.810;2023-07-30T07:49:49;23.90;99.90
17423;DHT22;8829;47.932;7.810;2023-07-30T07:52:15;24.70;99.90
17423;DHT22;8829;47.932;7.810;2023-07-30T07:54:42;25.10;99.90
17423;DHT22;8829;47.932;7.810;2023-07-30T07:57:10;25.50;99.90
17423;DHT22;8829;47.932;7.810;2023-07-30T07:59:37;25.50;99.90
17423;DHT22;8829;47.932;7.810;2023-07-30T08:02:04;25.20;99.90
17423;DHT22;8829;47.932;7.810;2023-07-30T08:04:31;25.10;99.90
17423;DHT22;8829;47.932;7.810;2023-07-30T08:06:58;25.30;99.90
17423;DHT22;8829;47.932;7.810;2023-07-30T08:09:28;25.40;99.90
17423;DHT22;8829;47.932;7.810;2023-07-30T08:11:56;25.30;99.90
17423;DHT22;8829;47.932;7.810;2023-07-30T08:14:24;25.60;99.90
17423;DHT22;8829;47.932;7.810;2023-07-30T08:16:51;25.80;99.90
17423;DHT22;8829;47.932;7.810;2023-07-30T08:19:17;26.00;99.90
17423;DHT22;8829;47.932;7.810;2023-07-30T08:21:44;26.10;99.90
17423;DHT22;8829;47.932;7.810;2023-07-30T08:24:11;26.30;99.90
17423;DHT22;8829;47.932;7.810;2023-07-30T08:26:38;26.40;99.90
17423;DHT22;8829;47.932;7.810;2023-07-30T08:29:04;26.50;99.90
17423;DHT22;8829;47.932;7.810;2023-07-30T08:31:36;26.50;99.90
17423;DHT22;8829;47.932;7.810;2023-07-30T08:34:03;26.30;99.90
17423;DHT22;8829;47.932;7.810;2023-07-30T08:36:30;26.10;99.90
17423;DHT22;8829;47.932;7.810;2023-07-30T08:38:57;25.70;99.90
17423;DHT22;8829;47.932;7.810;2023-07-30T08:41:24;25.50;99.90
17423;DHT22;8829;47.932;7.810;2023-07-30T08:43:51;25.30;99.90
17423;DHT22;8829;47.932;7.810;2023-07-30T08:46:18;25.00;99.90
17423;DHT22;8829;47.932;7.810;2023-07-30T08:48:46;25.10;99.90
17423;DHT22;8829;47.932;7.810;2023-07-30T08:51:13;25.20;99.90
17423;DHT22;8829;47.932;7.810;2023-07-30T08:53:41;25.70;99.90
17423;DHT22;8829;47.932;7.810;2023-07-30T08:56:09;26.00;99.90
17423;DHT22;8829;47.932;7.810;2023-07-30T08:58:36;26.00;99.90
17423;DHT22;8829;47.932;7.810;2023-07-30T09:01:08;26.00;99.90
17423;DHT22;8829;47.932;7.810;2023-07-30T09:03:38;26.00;99.90
17423;DHT22;8829;47.932;7.810;2023-07-30T09:06:06;26.20;99.90
17423;DHT22;8829;47.932;7.810;2023-07-30T09:08:33;26.10;99.90
17423;DHT22;8829;47.932;7.810;2023-07-30T09:11:06;26.10;99.90
17423;DHT22;8829;47.932;7.810;2023-07-30T09:13:37;25.70;99.90
17423;DHT22;8829;47.932;7.810;2023-07-30T09:16:08;25.30;99.90
17423;DHT22;8829;47.932;7.810;2023-07-30T09:18:39;25.30;99.90
17423;DHT22;8829;47.932;7.810;2023-07-30T09:21:07;25.20;99.90
17423;DHT22;8829;47.932;7.810;2023-07-30T09:23:39;25.30;99.90
17423;DHT22;8829;47.932;7.810;2023-07-30T09:26:06;25.10;99.90
17423;DHT22;8829;47.932;7.810;2023-07-30T09:28:33;25.10;99.90
17423;DHT22;8829;47.932;7.810;2023-07-30T09:31:00;25.20;99.90
17423;DHT22;8829;47.932;7.810;2023-07-30T09:33:27;25.10;99.90
17423;DHT22;8829;47.932;7.810;2023-07-30T09:35:54;25.00;99.90
17423;DHT22;8829;47.932;7.810;2023-07-30T09:38:22;25.00;99.90
17423;DHT22;8829;47.932;7.810;2023-07-30T09:40:49;25.10;99.90
17423;DHT22;8829;47.932;7.810;2023-07-30T09:43:16;25.00;99.90
17423;DHT22;8829;47.932;7.810;2023-07-30T09:45:45;25.10;99.90
17423;DHT22;8829;47.932;7.810;2023-07-30T09:48:12;25.00;99.90
17423;DHT22;8829;47.932;7.810;2023-07-30T09:50:40;25.10;99.90
17423;DHT22;8829;47.932;7.810;2023-07-30T09:53:09;25.30;99.90
17423;DHT22;8829;47.932;7.810;2023-07-30T09:55:37;25.40;99.90
17423;DHT22;8829;47.932;7.810;2023-07-30T09:58:04;25.50;99.90
17423;DHT22;8829;47.932;7.810;2023-07-30T10:00:31;25.40;99.90
17423;DHT22;8829;47.932;7.810;2023-07-30T10:02:58;25.10;99.90
17423;DHT22;8829;47.932;7.810;2023-07-30T10:05:32;25.30;99.90
17423;DHT22;8829;47.932;7.810;2023-07-30T10:08:02;25.10;99.90
17423;DHT22;8829;47.932;7.810;2023-07-30T10:10:31;25.00;99.90
17423;DHT22;8829;47.932;7.810;2023-07-30T10:13:05;24.90;99.90
17423;DHT22;8829;47.932;7.810;2023-07-30T10:15:34;24.60;99.90
17423;DHT22;8829;47.932;7.810;2023-07-30T10:18:01;24.50;99.90
17423;DHT22;8829;47.932;7.810;2023-07-30T10:20:28;24.40;99.90
17423;DHT22;8829;47.932;7.810;2023-07-30T10:22:57;24.20;99.90
17423;DHT22;8829;47.932;7.810;2023-07-30T10:25:29;24.10;99.90
17423;DHT22;8829;47.932;7.810;2023-07-30T10:27:57;24.20;99.90
17423;DHT22;8829;47.932;7.810;2023-07-30T10:30:31;24.20;99.90
17423;DHT22;8829;47.932;7.810;2023-07-30T10:32:59;24.20;99.90
17423;DHT22;8829;47.932;7.810;2023-07-30T10:35:40;24.10;99.90
17423;DHT22;8829;47.932;7.810;2023-07-30T10:38:18;24.10;99.90
17423;DHT22;8829;47.932;7.810;2023-07-30T10:41:03;24.10;99.90
17423;DHT22;8829;47.932;7.810;2023-07-30T10:43:31;24.20;99.90
17423;DHT22;8829;47.932;7.810;2023-07-30T10:45:59;24.40;99.90
17423;DHT22;8829;47.932;7.810;2023-07-30T10:48:32;24.40;99.90
17423;DHT22;8829;47.932;7.810;2023-07-30T10:51:00;24.40;99.90
17423;DHT22;8829;47.932;7.810;2023-07-30T10:53:27;24.70;99.90
17423;DHT22;8829;47.932;7.810;2023-07-30T10:55:54;24.60;99.90
17423;DHT22;8829;47.932;7.810;2023-07-30T10:58:25;24.60;99.90
17423;DHT22;8829;47.932;7.810;2023-07-30T11:00:52;24.50;99.90
17423;DHT22;8829;47.932;7.810;2023-07-30T11:03:20;24.40;99.90
17423;DHT22;8829;47.932;7.810;2023-07-30T11:05:50;24.40;99.90
17423;DHT22;8829;47.932;7.810;2023-07-30T11:08:17;24.30;99.90
17423;DHT22;8829;47.932;7.810;2023-07-30T11:10:45;24.40;99.90
17423;DHT22;8829;47.932;7.810;2023-07-30T11:13:12;24.40;99.90
17423;DHT22;8829;47.932;7.810;2023-07-30T11:15:43;24.10;99.90
17423;DHT22;8829;47.932;7.810;2023-07-30T11:18:11;24.10;99.90
17423;DHT22;8829;47.932;7.810;2023-07-30T11:20:39;24.20;99.90
17423;DHT22;8829;47.932;7.810;2023-07-30T11:23:19;24.60;99.90
17423;DHT22;8829;47.932;7.810;2023-07-30T11:25:47;24.60;99.90
17423;DHT22;8829;47.932;7.810;2023-07-30T11:28:15;24.60;99.90
17423;DHT22;8829;47.932;7.810;2023-07-30T11:30:42;24.60;99.90
17423;DHT22;8829;47.932;7.810;2023-07-30T11:33:15;24.60;99.90
17423;DHT22;8829;47.932;7.810;2023-07-30T11:35:43;24.50;99.90
17423;DHT22;8829;47.932;7.810;2023-07-30T11:38:11;24.20;99.90
17423;DHT22;8829;47.932;7.810;2023-07-30T11:40:38;24.10;99.90
17423;DHT22;8829;47.932;7.810;2023-07-30T11:43:05;24.20;99.90
17423;DHT22;8829;47.932;7.810;2023-07-30T11:45:32;24.30;99.90
17423;DHT22;8829;47.932;7.810;2023-07-30T11:48:06;24.60;99.90
17423;DHT22;8829;47.932;7.810;2023-07-30T11:50:46;24.80;99.90
17423;DHT22;8829;47.932;7.810;2023-07-30T11:53:13;25.00;99.90
17423;DHT22;8829;47.932;7.810;2023-07-30T11:55:41;24.90;99.90
17423;DHT22;8829;47.932;7.810;2023-07-30T11:58:09;24.80;99.90
17423;DHT22;8829;47.932;7.810;2023-07-30T12:00:37;24.70;99.90
17423;DHT22;8829;47.932;7.810;2023-07-30T12:03:05;24.70;99.90
17423;DHT22;8829;47.932;7.810;2023-07-30T12:05:32;24.50;99.90
17423;DHT22;8829;47.932;7.810;2023-07-30T12:08:02;24.40;99.90
17423;DHT22;8829;47.932;7.810;2023-07-30T12:10:41;24.40;99.90
17423;DHT22;8829;47.932;7.810;2023-07-30T12:13:12;24.30;99.90
17423;DHT22;8829;47.932;7.810;2023-07-30T12:15:38;24.20;99.90
17423;DHT22;8829;47.932;7.810;2023-07-30T12:18:05;24.00;99.90
17423;DHT22;8829;47.932;7.810;2023-07-30T12:20:32;24.00;99.90
17423;DHT22;8829;47.932;7.810;2023-07-30T12:22:58;23.90;99.90
17423;DHT22;8829;47.932;7.810;2023-07-30T12:25:26;24.10;99.90
17423;DHT22;8829;47.932;7.810;2023-07-30T12:27:54;24.00;99.90
17423;DHT22;8829;47.932;7.810;2023-07-30T12:30:20;23.90;99.90
17423;DHT22;8829;47.932;7.810;2023-07-30T12:32:47;23.80;99.90
17423;DHT22;8829;47.932;7.810;2023-07-30T12:35:14;24.00;99.90
17423;DHT22;8829;47.932;7.810;2023-07-30T12:37:40;24.00;99.90
17423;DHT22;8829;47.932;7.810;2023-07-30T12:40:08;24.00;99.90
17423;DHT22;8829;47.932;7.810;2023-07-30T12:42:36;23.90;99.90
17423;DHT22;8829;47.932;7.810;2023-07-30T12:45:03;24.00;99.90
17423;DHT22;8829;47.932;7.810;2023-07-30T12:47:30;24.00;99.90
17423;DHT22;8829;47.932;7.810;2023-07-30T12:49:57;24.10;99.90
17423;DHT22;8829;47.932;7.810;2023-07-30T12:52:24;24.10;99.90
17423;DHT22;8829;47.932;7.810;2023-07-30T12:54:50;24.10;99.90
17423;DHT22;8829;47.932;7.810;2023-07-30T12:57:17;24.10;99.90
17423;DHT22;8829;47.932;7.810;2023-07-30T12:59:45;24.10;99.90
17423;DHT22;8829;47.932;7.810;2023-07-30T13:02:12;24.10;99.90
17423;DHT22;8829;47.932;7.810;2023-07-30T13:04:38;24.10;99.90
17423;DHT22;8829;47.932;7.810;2023-07-30T13:07:05;24.20;99.90
17423;DHT22;8829;47.932;7.810;2023-07-30T13:09:32;24.30;99.90
17423;DHT22;8829;47.932;7.810;2023-07-30T13:11:59;24.30;99.90
17423;DHT22;8829;47.932;7.810;2023-07-30T13:14:25;24.20;99.90
17423;DHT22;8829;47.932;7.810;2023-07-30T13:16:53;24.20;99.90
17423;DHT22;8829;47.932;7.810;2023-07-30T13:19:20;24.10;99.90
17423;DHT22;8829;47.932;7.810;2023-07-30T13:21:47;24.20;99.90
17423;DHT22;8829;47.932;7.810;2023-07-30T13:24:13;24.20;99.90
17423;DHT22;8829;47.932;7.810;2023-07-30T13:26:40;24.20;99.90
17423;DHT22;8829;47.932;7.810;2023-07-30T13:29:07;24.10;99.90
17423;DHT22;8829;47.932;7.810;2023-07-30T13:31:33;24.20;99.90
17423;DHT22;8829;47.932;7.810;2023-07-30T13:34:01;24.10;99.90
17423;DHT22;8829;47.932;7.810;2023-07-30T13:36:28;23.90;99.90
17423;DHT22;8829;47.932;7.810;2023-07-30T13:38:56;24.00;99.90
17423;DHT22;8829;47.932;7.810;2023-07-30T13:41:22;24.10;99.90
17423;DHT22;8829;47.932;7.810;2023-07-30T13:43:49;24.00;99.90
17423;DHT22;8829;47.932;7.810;2023-07-30T13:46:16;24.00;99.90
17423;DHT22;8829;47.932;7.810;2023-07-30T13:48:42;24.00;99.90
17423;DHT22;8829;47.932;7.810;2023-07-30T13:51:10;24.00;99.90
17423;DHT22;8829;47.932;7.810;2023-07-30T13:53:37;24.10;99.90
17423;DHT22;8829;47.932;7.810;2023-07-30T13:56:06;24.20;99.90
17423;DHT22;8829;47.932;7.810;2023-07-30T13:58:33;24.10;99.90
17423;DHT22;8829;47.932;7.810;2023-07-30T14:01:00;23.90;99.90
17423;DHT22;8829;47.932;7.810;2023-07-30T14:03:26;23.90;99.90
17423;DHT22;8829;47.932;7.810;2023-07-30T14:05:53;23.80;99.90
17423;DHT22;8829;47.932;7.810;2023-07-30T14:08:21;23.90;99.90
17423;DHT22;8829;47.932;7.810;2023-07-30T14:10:48;23.90;99.90
17423;DHT22;8829;47.932;7.810;2023-07-30T14:13:14;23.80;99.90
17423;DHT22;8829;47.932;7.810;2023-07-30T14:15:41;23.80;99.90
17423;DHT22;8829;47.932;7.810;2023-07-30T14:18:09;23.60;99.90
17423;DHT22;8829;47.932;7.810;2023-07-30T14:20:36;23.70;99.90
17423;DHT22;8829;47.932;7.810;2023-07-30T14:23:03;23.70;99.90
17423;DHT22;8829;47.932;7.810;2023-07-30T14:25:32;23.80;99.90
17423;DHT22;8829;47.932;7.810;2023-07-30T14:27:59;23.70;99.90
17423;DHT22;8829;47.932;7.810;2023-07-30T14:30:25;23.80;99.90
17423;DHT22;8829;47.932;7.810;2023-07-30T14:32:52;23.80;99.90
17423;DHT22;8829;47.932;7.810;2023-07-30T14:35:20;23.60;99.90
17423;DHT22;8829;47.932;7.810;2023-07-30T14:37:46;23.50;99.90
17423;DHT22;8829;47.932;7.810;2023-07-30T14:40:14;23.60;99.90
17423;DHT22;8829;47.932;7.810;2023-07-30T14:42:42;23.60;99.90
17423;DHT22;8829;47.932;7.810;2023-07-30T14:45:09;23.60;99.90
17423;DHT22;8829;47.932;7.810;2023-07-30T14:47:36;23.60;99.90
17423;DHT22;8829;47.932;7.810;2023-07-30T14:50:04;23.60;99.90
17423;DHT22;8829;47.932;7.810;2023-07-30T14:52:31;23.60;99.90
17423;DHT22;8829;47.932;7.810;2023-07-30T14:54:58;23.70;99.90
17423;DHT22;8829;47.932;7.810;2023-07-30T14:57:24;23.70;99.90
17423;DHT22;8829;47.932;7.810;2023-07-30T14:59:53;23.70;99.90
17423;DHT22;8829;47.932;7.810;2023-07-30T15:02:19;23.60;99.90
17423;DHT22;8829;47.932;7.810;2023-07-30T15:04:46;23.60;99.90
17423;DHT22;8829;47.932;7.810;2023-07-30T15:07:13;23.50;99.90
17423;DHT22;8829;47.932;7.810;2023-07-30T15:09:39;23.50;99.90
17423;DHT22;8829;47.932;7.810;2023-07-30T15:12:07;23.50;99.90
17423;DHT22;8829;47.932;7.810;2023-07-30T15:14:34;23.40;99.90
17423;DHT22;8829;47.932;7.810;2023-07-30T15:17:03;23.60;99.90
17423;DHT22;8829;47.932;7.810;2023-07-30T15:19:30;23.80;99.90
17423;DHT22;8829;47.932;7.810;2023-07-30T15:21:57;24.00;99.90
17423;DHT22;8829;47.932;7.810;2023-07-30T15:24:24;24.20;99.90
17423;DHT22;8829;47.932;7.810;2023-07-30T15:26:51;24.40;99.90
17423;DHT22;8829;47.932;7.810;2023-07-30T15:29:17;24.50;99.90
17423;DHT22;8829;47.932;7.810;2023-07-30T15:31:44;24.70;99.90
17423;DHT22;8829;47.932;7.810;2023-07-30T15:34:12;24.70;99.90
17423;DHT22;8829;47.932;7.810;2023-07-30T15:36:40;24.60;99.90
17423;DHT22;8829;47.932;7.810;2023-07-30T15:39:06;24.40;99.90
17423;DHT22;8829;47.932;7.810;2023-07-30T15:41:33;24.30;99.90
17423;DHT22;8829;47.932;7.810;2023-07-30T15:44:00;24.40;99.90
17423;DHT22;8829;47.932;7.810;2023-07-30T15:46:26;24.20;99.90